Langley Air Force Base
KLFI : now visible

Airfield :











YOU CAN JOIN US ON...

 
LOGIN :

Register | Disclaimer

   EN    FR    IT 

 









Legend :    VFR   Marginal VFR   IFR   Intensive IFR   Very Intensive IFR
Visi :
Ceiling :
>= 8 km
>= 3000ft
5 to 8 km
1000 to 3000 ft
1500m to 5 km
500 to 1000 ft
800 to 1500m
200 to 500 ft
< 800m
< 200 ft
Symbols :   Thunderstorms  Fog  Heavy snow  Heavy precipitations  Wind > 20 kt






- Airport Elevation : 11 ft


KLFI - Langley Air Force Base

CURRENT METAR :
  • 281155Z AUTO 27008KT 10SM CLR 11/11 A2970 RMK AO2 SLP064 70039 T01090107 10162 20109 52021 $

EXPIRED METARs :
  • 281055Z 25006KT 10SM CLR 12/11 A2968 RMK AO2A SLP057 T01150113 $
  • 281001Z 27005KT 10SM CLR 12/12 A2966 RMK SLP050 T01220116 $

TAF TAF KLFI
Valid from the 28 at 10:00 until the 29 at 16:00 UTC


281000Z 2810/2916 24009KT 9999 FEW220 QNH2964INS
BECMG 2814/2815 28012G20KT 9999 FEW035 SCT050 QNH2980INS
BECMG 2818/2819 31015G20KT 9999 BKN030 OVC050 QNH2988INS
BECMG 2900/2901 32009KT 9999 SCT040 QNH3032INS TX16/2820Z TN06/2910Z
KZDC FIR / North America



MET'MAP, your aeronautical weather chart ! - Copyright ORBIFLY December 2007 - Disclaimer

ORBIFLY MET'MAP TEAM :

Programming & Development : Alexandra Zaïnal
Original concept : Baudouin d'Aumeries
Technical & hardware support : Manuel Goepfert
Assistance : Marc-Olivier Méhu




SOURCES & CREDITS :

   NOAA       Earth
Advisory